Time;durP1;ratioP1;P1;durP2;ratioP2;P2;SDS_P1;SDS_P2;PMS_P1;PMS_P2;Temp;Humidity;BMP_temperature;BMP_pressure;BME280_temperature;BME280_humidity;BME280_pressure;Samples;Min_cycle;Max_cycle;Signal;HPM_P1;HPM_P2
2021/11/22 07:09:38;;;;;;;70.92;43.17;;;;;;;5.86;100.00;97750.92;1871600;76;24475;-57
2021/11/22 07:12:06;;;;;;;52.40;33.70;;;;;;;5.82;100.00;97752.45;1827876;78;20861;-58
2021/11/22 07:14:33;;;;;;;162.60;63.98;;;;;;;5.85;100.00;97754.63;1819856;77;21482;-57
2021/11/22 07:16:59;;;;;;;30.88;23.02;;;;;;;5.91;100.00;97755.69;1809357;78;20974;-60
2021/11/22 07:19:26;;;;;;;28.95;21.90;;;;;;;6.00;100.00;97757.30;1797318;78;20883;-61
2021/11/22 07:21:53;;;;;;;29.35;21.23;;;;;;;6.08;100.00;97758.88;1827017;78;20908;-62
2021/11/22 07:24:20;;;;;;;28.77;22.22;;;;;;;6.14;100.00;97761.02;1823474;78;20963;-62
2021/11/22 07:26:47;;;;;;;25.52;21.15;;;;;;;6.22;100.00;97757.80;1823446;78;21727;-57
2021/11/22 07:29:16;;;;;;;29.15;22.67;;;;;;;6.31;100.00;97764.20;1823056;78;20880;-60
2021/11/22 07:31:43;;;;;;;28.65;21.77;;;;;;;6.41;100.00;97763.36;1822679;78;20885;-60
2021/11/22 07:34:10;;;;;;;25.05;20.72;;;;;;;6.52;100.00;97767.09;1823061;78;20904;-61
2021/11/22 07:36:38;;;;;;;26.62;20.60;;;;;;;6.59;100.00;97764.95;1823478;78;21478;-60
2021/11/22 07:39:05;;;;;;;25.32;20.62;;;;;;;6.66;100.00;97763.33;1819358;78;21779;-59
2021/11/22 07:41:32;;;;;;;25.25;21.12;;;;;;;6.70;100.00;97762.52;1822764;78;21518;-58
2021/11/22 07:43:59;;;;;;;24.92;21.25;;;;;;;6.72;99.95;97764.90;1822293;78;21474;-60
2021/11/22 07:46:27;;;;;;;24.70;20.80;;;;;;;6.74;99.55;97771.55;1815140;79;21722;-57
2021/11/22 07:48:55;;;;;;;26.90;20.12;;;;;;;6.81;99.40;97776.58;1817675;78;20975;-63
2021/11/22 07:51:23;;;;;;;25.55;21.10;;;;;;;6.86;99.24;97772.05;1818654;79;21115;-59
2021/11/22 07:53:50;;;;;;;27.90;22.52;;;;;;;6.95;99.08;97774.16;1818211;78;20919;-59
2021/11/22 07:56:18;;;;;;;27.50;20.57;;;;;;;6.97;98.54;97779.48;1818305;79;20825;-60
2021/11/22 07:58:47;;;;;;;23.02;20.37;;;;;;;7.00;98.45;97778.11;1818361;79;21446;-60
2021/11/22 08:01:15;;;;;;;27.40;21.07;;;;;;;6.98;98.33;97785.05;1818587;79;20904;-59
2021/11/22 08:03:42;;;;;;;27.87;23.30;;;;;;;6.98;97.97;97793.56;1818165;79;21095;-59
2021/11/22 08:06:12;;;;;;;33.45;22.87;;;;;;;6.94;97.83;97792.00;1818236;79;20935;-59
2021/11/22 08:08:41;;;;;;;29.48;22.37;;;;;;;6.89;97.63;97795.47;1812528;78;20974;-58
2021/11/22 08:13:39;;;;;;;28.10;21.02;;;;;;;6.91;97.64;97800.52;1812553;79;20964;-59
2021/11/22 08:16:08;;;;;;;24.95;21.45;;;;;;;6.88;97.51;97793.87;1811862;79;21483;-57
2021/11/22 08:18:37;;;;;;;30.25;22.98;;;;;;;6.89;97.46;97795.47;1808182;79;20986;-62
2021/11/22 08:21:05;;;;;;;30.45;23.67;;;;;;;6.92;97.39;97799.98;1796136;79;20849;-61
2021/11/22 08:23:32;;;;;;;28.35;22.35;;;;;;;6.93;97.26;97801.05;1808240;79;20955;-62
2021/11/22 08:26:00;;;;;;;27.37;21.97;;;;;;;6.97;97.16;97804.78;1810974;79;21443;-59
2021/11/22 08:28:27;;;;;;;28.00;22.77;;;;;;;6.98;97.04;97807.69;1812112;79;21137;-60
2021/11/22 08:30:54;;;;;;;29.98;23.57;;;;;;;6.98;96.94;97813.54;1809979;79;20956;-58
2021/11/22 08:33:20;;;;;;;29.30;22.02;;;;;;;6.98;96.97;97818.87;1810334;79;20994;-58
2021/11/22 08:35:47;;;;;;;27.00;21.27;;;;;;;6.98;96.86;97818.87;1809429;78;20975;-61
2021/11/22 08:38:15;;;;;;;30.62;23.52;;;;;;;6.96;96.66;97824.47;1810453;79;20872;-60
2021/11/22 08:40:42;;;;;;;164.65;60.52;;;;;;;6.91;96.57;97819.16;1810194;79;21116;-62
2021/11/22 08:43:11;;;;;;;23.50;19.40;;;;;;;6.89;96.67;97826.09;1811542;78;20885;-61
2021/11/22 08:45:39;;;;;;;27.40;19.50;;;;;;;6.88;96.52;97828.48;1806423;78;21565;-61
2021/11/22 08:48:06;;;;;;;22.60;18.30;;;;;;;6.87;96.34;97826.91;1811236;79;20951;-57
2021/11/22 08:50:34;;;;;;;22.73;16.97;;;;;;;6.89;96.28;97830.09;1807309;79;20872;-61
2021/11/22 08:53:01;;;;;;;23.30;18.35;;;;;;;6.92;95.96;97830.61;1811451;79;21088;-58
2021/11/22 08:55:28;;;;;;;22.65;17.98;;;;;;;6.93;95.91;97830.33;1810661;79;20975;-61
2021/11/22 08:57:55;;;;;;;26.50;19.25;;;;;;;6.93;95.68;97829.52;1811320;79;20959;-60
2021/11/22 09:00:26;;;;;;;21.05;17.35;;;;;;;6.92;95.61;97838.59;1811029;79;20913;-61
2021/11/22 09:02:54;;;;;;;24.92;17.27;;;;;;;6.93;95.59;97839.65;1806884;79;21569;-60
2021/11/22 09:05:21;;;;;;;22.48;16.87;;;;;;;6.98;95.53;97841.50;1810404;79;21112;-59
2021/11/22 09:07:48;;;;;;;27.17;19.05;;;;;;;7.00;95.43;97835.36;1810139;79;21514;-61
2021/11/22 09:10:14;;;;;;;90.87;43.63;;;;;;;7.01;95.26;97838.30;1811323;79;20895;-60
2021/11/22 09:12:41;;;;;;;21.27;16.30;;;;;;;7.03;95.25;97832.17;1810953;79;21027;-60
2021/11/22 09:15:08;;;;;;;26.30;16.95;;;;;;;7.08;95.03;97839.62;1810155;78;20951;-59
2021/11/22 09:17:35;;;;;;;20.43;16.27;;;;;;;7.12;94.91;97834.53;1811188;78;21125;-59
2021/11/22 09:20:03;;;;;;;21.00;15.95;;;;;;;7.14;94.69;97833.72;1811184;79;21574;-62
2021/11/22 09:22:30;;;;;;;20.10;16.17;;;;;;;7.15;94.70;97828.14;1810289;78;21451;-62
2021/11/22 09:25:00;;;;;;;21.45;16.97;;;;;;;7.18;94.60;97836.93;1810480;79;20976;-62
2021/11/22 09:27:27;;;;;;;22.13;15.83;;;;;;;7.21;94.52;97831.05;1803067;78;21663;-60
2021/11/22 09:29:53;;;;;;;21.37;15.80;;;;;;;7.22;94.36;97827.84;1807661;79;21091;-62
2021/11/22 09:32:20;;;;;;;19.85;15.58;;;;;;;7.22;94.15;97827.84;1809877;77;21007;-62
2021/11/22 09:34:49;;;;;;;21.60;15.53;;;;;;;7.23;94.14;97823.57;1812443;78;21651;-59
2021/11/22 09:37:16;;;;;;;25.57;18.73;;;;;;;7.30;94.12;97821.97;1806711;79;21369;-64
2021/11/22 09:39:43;;;;;;;18.60;13.28;;;;;;;7.34;93.92;97820.34;1811643;78;20939;-59
2021/11/22 09:42:10;;;;;;;14.60;10.68;;;;;;;7.32;93.55;97825.16;1810454;79;21104;-57
2021/11/22 09:44:37;;;;;;;11.65;8.40;;;;;;;7.24;93.22;97819.84;1806969;78;21081;-60
2021/11/22 09:47:04;;;;;;;10.78;7.78;;;;;;;7.16;92.83;97830.28;1811186;79;20869;-60
2021/11/22 09:49:30;;;;;;;12.50;8.30;;;;;;;7.03;92.93;97819.66;1809682;78;20940;-57
2021/11/22 09:51:57;;;;;;;10.70;7.80;;;;;;;6.96;93.00;97826.33;1810583;79;20963;-58
2021/11/22 09:54:24;;;;;;;10.15;7.62;;;;;;;6.93;93.23;97821.54;1811152;79;21045;-63
2021/11/22 09:56:52;;;;;;;13.93;8.88;;;;;;;6.94;93.24;97827.14;1810286;78;21051;-58
2021/11/22 09:59:20;;;;;;;10.93;7.30;;;;;;;6.90;93.28;97828.23;1790395;79;20989;-58
2021/11/22 10:01:54;;;;;;;8.00;5.60;;;;;;;6.89;93.39;97832.75;1768109;79;20873;-61
2021/11/22 10:04:21;;;;;;;7.62;5.12;;;;;;;6.87;93.32;97830.09;1787574;79;21447;-60
2021/11/22 10:07:00;;;;;;;7.22;4.83;;;;;;;6.82;93.33;97838.89;1789022;79;21467;-63
2021/11/22 10:09:40;;;;;;;5.65;4.42;;;;;;;6.80;93.40;97842.36;1787494;79;20881;-62
2021/11/22 10:12:22;;;;;;;9.78;5.55;;;;;;;6.79;93.25;97837.28;1797425;79;20947;-60
2021/11/22 10:14:56;;;;;;;8.00;5.12;;;;;;;6.76;93.25;97845.27;1798578;78;20924;-61
2021/11/22 10:17:35;;;;;;;8.15;5.50;;;;;;;6.77;93.35;97844.22;1794185;79;20912;-57
2021/11/22 10:20:10;;;;;;;9.15;6.25;;;;;;;6.79;93.46;97848.73;1789446;79;21124;-58
2021/11/22 10:23:01;;;;;;;6.40;4.35;;;;;;;6.83;93.57;97847.12;1792739;79;20895;-61
2021/11/22 10:25:42;;;;;;;6.50;4.87;;;;;;;6.81;93.24;97849.27;1792615;79;20971;-59
2021/11/22 10:28:16;;;;;;;6.42;4.75;;;;;;;6.75;93.26;97857.53;1777467;80;21506;-58
2021/11/22 10:30:52;;;;;;;5.80;4.28;;;;;;;6.73;93.29;97853.02;1753142;81;21037;-60
2021/11/22 10:33:25;;;;;;;7.95;4.58;;;;;;;6.77;93.28;97856.20;1753976;81;21080;-60
2021/11/22 10:35:56;;;;;;;6.72;4.70;;;;;;;6.79;93.20;97854.06;1759355;80;21132;-60
2021/11/22 10:38:30;;;;;;;6.33;3.85;;;;;;;6.79;93.00;97857.25;1780611;79;21053;-60
2021/11/22 10:41:12;;;;;;;5.03;3.45;;;;;;;6.75;93.04;97853.01;1761953;79;20848;-58
2021/11/22 10:43:49;;;;;;;5.87;3.75;;;;;;;6.72;92.93;97863.38;1770905;80;20986;-61
2021/11/22 10:46:12;;;;;;;4.20;3.15;;;;;;;6.69;92.87;97855.39;1819838;78;21079;-57
2021/11/22 10:48:39;;;;;;;4.28;3.35;;;;;;;6.67;92.80;97860.20;1785020;80;20996;-59
2021/11/22 10:51:13;;;;;;;4.33;3.00;;;;;;;6.67;92.90;97857.53;1821499;77;20873;-59
2021/11/22 10:53:46;;;;;;;5.33;3.30;;;;;;;6.67;92.94;97853.55;1782962;80;21023;-61
2021/11/22 10:56:23;;;;;;;3.67;2.45;;;;;;;6.73;92.92;97855.67;1753785;81;21056;-59
2021/11/22 10:58:56;;;;;;;3.00;2.20;;;;;;;6.76;92.85;97855.11;1775288;80;21082;-57
2021/11/22 11:01:31;;;;;;;3.00;2.20;;;;;;;6.78;92.68;97858.33;1807751;78;21466;-60
2021/11/22 11:04:26;;;;;;;4.05;2.55;;;;;;;6.78;92.51;97861.77;1825907;78;20954;-61
2021/11/22 11:07:02;;;;;;;3.50;2.20;;;;;;;6.74;92.23;97862.05;1825464;78;20955;-60
2021/11/22 11:09:39;;;;;;;3.72;2.35;;;;;;;6.68;91.86;97860.47;1825459;78;25015;-60
2021/11/22 11:12:18;;;;;;;4.22;2.35;;;;;;;6.64;92.00;97866.05;1825630;78;21026;-59
2021/11/22 11:14:55;;;;;;;2.95;1.90;;;;;;;6.70;91.95;97861.52;1825142;78;21538;-60
2021/11/22 11:17:34;;;;;;;3.17;2.35;;;;;;;6.72;91.67;97864.19;1823600;78;26366;-64
2021/11/22 11:20:14;;;;;;;4.50;2.60;;;;;;;6.73;91.38;97864.47;1822408;78;21021;-63
2021/11/22 11:22:41;;;;;;;3.65;2.60;;;;;;;6.76;91.20;97865.23;1824021;78;20991;-65
2021/11/22 11:25:08;;;;;;;5.25;2.62;;;;;;;6.80;91.27;97868.17;1824466;77;21106;-58
2021/11/22 11:27:39;;;;;;;4.95;3.17;;;;;;;6.85;91.16;97866.28;1824297;78;20824;-60
2021/11/22 11:30:12;;;;;;;4.92;3.35;;;;;;;6.92;91.13;97863.89;1824284;78;20923;-60
2021/11/22 11:32:39;;;;;;;4.33;3.15;;;;;;;6.96;90.87;97863.61;1824198;78;20932;-62
2021/11/22 11:35:17;;;;;;;3.90;3.05;;;;;;;6.90;90.57;97860.95;1824477;77;21488;-58
2021/11/22 11:38:20;;;;;;;4.00;2.58;;;;;;;6.86;90.30;97867.89;1825180;78;21495;-59
2021/11/22 11:41:13;;;;;;;4.87;2.98;;;;;;;6.80;90.06;97863.66;1826561;78;20896;-59
2021/11/22 11:44:25;;;;;;;6.75;3.75;;;;;;;6.77;89.99;97873.50;1791700;79;20966;-60
2021/11/22 11:47:11;;;;;;;4.12;2.55;;;;;;;6.75;89.91;97884.95;1778721;80;21594;-58
2021/11/22 11:49:39;;;;;;;6.10;3.70;;;;;;;6.70;89.87;97882.30;1814597;79;20955;-60
2021/11/22 11:52:27;;;;;;;4.25;2.70;;;;;;;6.64;89.96;97882.02;1822593;78;21052;-62
2021/11/22 11:54:57;;;;;;;5.08;3.40;;;;;;;6.60;90.09;97881.48;1810403;78;20834;-60
2021/11/22 11:57:27;;;;;;;6.80;4.33;;;;;;;6.58;90.11;97882.29;1817455;79;20873;-62
2021/11/22 11:59:53;;;;;;;11.22;4.65;;;;;;;6.57;90.19;97882.81;1817212;79;20933;-61
2021/11/22 12:02:29;;;;;;;8.93;4.75;;;;;;;6.53;90.39;97888.41;1801447;79;21102;-61
2021/11/22 12:05:05;;;;;;;7.87;5.15;;;;;;;6.54;90.55;97879.38;1784646;80;21074;-57
2021/11/22 12:07:50;;;;;;;7.40;4.22;;;;;;;6.55;90.65;97886.28;1744838;81;21400;-60
2021/11/22 12:10:25;;;;;;;8.35;4.55;;;;;;;6.57;90.70;97889.47;1814069;78;20943;-60
2021/11/22 12:13:07;;;;;;;11.50;6.22;;;;;;;6.57;90.65;97890.80;1821642;78;20936;-56
2021/11/22 12:15:47;;;;;;;8.25;5.83;;;;;;;6.58;90.82;97891.08;1771446;78;21421;-58
2021/11/22 12:18:34;;;;;;;10.10;5.95;;;;;;;6.61;90.89;97891.88;1718017;80;21040;-58
2021/11/22 12:21:20;;;;;;;9.75;5.97;;;;;;;6.59;90.88;97899.34;1728282;82;21208;-55
2021/11/22 12:23:53;;;;;;;8.90;7.20;;;;;;;6.59;91.11;97895.88;1776258;80;21040;-58
2021/11/22 12:26:38;;;;;;;6.12;4.65;;;;;;;6.58;91.11;97902.25;1776038;79;20977;-61
2021/11/22 12:29:04;;;;;;;9.78;5.42;;;;;;;6.53;91.20;97897.73;1772299;80;20930;-62
2021/11/22 12:31:46;;;;;;;9.63;5.35;;;;;;;6.48;91.32;97904.90;1746650;81;20974;-61
2021/11/22 12:34:13;;;;;;;8.15;5.53;;;;;;;6.45;91.44;97900.13;1700863;83;21014;-59
2021/11/22 12:36:43;;;;;;;10.93;5.92;;;;;;;6.45;91.69;97904.92;1729310;81;21010;-61
2021/11/22 12:39:15;;;;;;;8.00;6.17;;;;;;;6.47;91.77;97904.66;1730700;83;20919;-61
2021/11/22 12:41:42;;;;;;;7.95;5.90;;;;;;;6.51;91.82;97903.85;1730280;83;21581;-59
2021/11/22 12:44:22;;;;;;;7.58;5.72;;;;;;;6.51;91.77;97905.19;1730886;83;21177;-60
2021/11/22 12:46:56;;;;;;;11.63;8.10;;;;;;;6.51;91.73;97903.05;1729760;83;21121;-55
2021/11/22 12:49:40;;;;;;;8.03;5.75;;;;;;;6.48;91.49;97903.05;1730168;83;20990;-55
2021/11/22 12:52:26;;;;;;;9.63;6.03;;;;;;;6.46;91.25;97907.84;1730662;81;20894;-60
2021/11/22 12:54:57;;;;;;;8.73;6.60;;;;;;;6.38;91.02;97899.07;1731235;83;21050;-63
2021/11/22 12:57:31;;;;;;;8.30;5.47;;;;;;;6.28;90.87;97903.05;1730702;83;21049;-57
2021/11/22 13:00:15;;;;;;;9.53;6.30;;;;;;;6.20;90.92;97905.69;1727490;81;20938;-59
2021/11/22 13:03:02;;;;;;;11.53;6.85;;;;;;;6.19;91.02;97896.66;1730298;83;20890;-58
2021/11/22 13:05:51;;;;;;;11.70;7.00;;;;;;;6.20;91.14;97907.54;1730567;83;28764;-60
2021/11/22 13:08:22;;;;;;;11.45;7.25;;;;;;;6.19;91.08;97904.63;1730444;83;20895;-58
2021/11/22 13:11:02;;;;;;;11.88;6.67;;;;;;;6.23;91.01;97904.88;1774259;80;21743;-60
2021/11/22 13:16:13;;;;;;;10.48;5.67;;;;;;;6.19;90.59;97905.41;1790280;80;21578;-57
2021/11/22 13:18:39;;;;;;;8.68;5.50;;;;;;;6.15;90.69;97911.52;1755241;81;21013;-60
2021/11/22 13:21:12;;;;;;;10.28;7.00;;;;;;;6.15;90.61;97914.17;1761765;80;20918;-62
2021/11/22 13:23:40;;;;;;;14.58;9.03;;;;;;;6.13;90.62;97920.30;1727117;81;21123;-58
2021/11/22 13:26:15;;;;;;;15.85;10.78;;;;;;;6.11;90.66;97921.09;1784305;80;20936;-61
2021/11/22 13:29:01;;;;;;;16.23;11.80;;;;;;;6.06;90.77;97924.54;1782871;80;21411;-57
2021/11/22 13:31:34;;;;;;;15.88;10.93;;;;;;;6.02;90.99;97931.45;1787966;78;21029;-59
2021/11/22 13:34:04;;;;;;;14.65;10.30;;;;;;;6.00;91.19;97942.08;1790844;80;20891;-61
2021/11/22 13:36:38;;;;;;;15.30;10.45;;;;;;;5.96;91.30;97943.64;1790800;80;21109;-59
2021/11/22 13:39:15;;;;;;;18.27;9.95;;;;;;;5.93;91.50;97941.52;1791258;80;21323;-57
2021/11/22 13:41:59;;;;;;;11.18;7.80;;;;;;;5.92;91.51;97946.56;1785528;80;20938;-58
2021/11/22 13:44:29;;;;;;;15.03;10.28;;;;;;;5.90;91.37;97954.00;1783584;80;20970;-60
2021/11/22 13:47:02;;;;;;;17.70;10.80;;;;;;;5.84;91.47;97963.80;1780389;80;21064;-58
2021/11/22 13:49:29;;;;;;;13.55;10.45;;;;;;;5.82;91.41;97965.09;1732712;81;21214;-61
2021/11/22 13:51:59;;;;;;;14.25;8.23;;;;;;;5.78;91.10;97967.48;1772077;80;21764;-58
2021/11/22 13:54:27;;;;;;;17.27;9.20;;;;;;;5.75;91.13;97973.83;1772176;80;20985;-57
2021/11/22 13:57:00;;;;;;;21.82;10.72;;;;;;;5.75;90.93;97972.50;1772678;80;21071;-55
2021/11/22 13:59:34;;;;;;;10.55;9.45;;;;;;;5.72;90.79;97969.06;1773326;80;21033;-58
2021/11/22 14:02:06;;;;;;;15.15;9.80;;;;;;;5.69;90.96;97973.55;1768534;80;21112;-56
2021/11/22 14:04:38;;;;;;;12.40;7.70;;;;;;;5.65;90.95;97981.26;1767187;80;21500;-60
2021/11/22 14:07:09;;;;;;;12.13;7.78;;;;;;;5.61;90.79;97985.47;1771893;80;21120;-58
2021/11/22 14:12:12;;;;;;;14.78;9.08;;;;;;;5.51;90.76;97980.91;1761192;81;20958;-61
2021/11/22 14:14:45;;;;;;;13.95;9.28;;;;;;;5.48;90.68;97988.60;1758970;81;21089;-60
2021/11/22 14:17:20;;;;;;;10.43;7.62;;;;;;;5.45;90.44;97997.88;1759462;81;21374;-58
2021/11/22 14:20:06;;;;;;;11.22;8.00;;;;;;;5.37;90.28;97993.59;1761536;81;21366;-63
2021/11/22 14:22:40;;;;;;;14.03;8.13;;;;;;;5.35;90.32;97992.50;1762495;81;20919;-61
2021/11/22 14:25:07;;;;;;;12.10;8.28;;;;;;;5.36;90.38;97996.77;1755523;79;20995;-60
2021/11/22 14:27:38;;;;;;;9.80;7.28;;;;;;;5.34;90.20;98000.21;1737796;82;21896;-59
2021/11/22 14:30:08;;;;;;;12.30;8.78;;;;;;;5.34;90.09;98006.05;1750158;79;21049;-60
2021/11/22 14:32:38;;;;;;;15.23;9.33;;;;;;;5.33;90.08;98013.21;1782302;79;20981;-59
